createdAt,value
2023-06-11T00:00:12.720Z,1.30
2023-06-11T00:03:00.413Z,1.50
2023-06-11T00:05:29.225Z,1.40
2023-06-11T00:08:01.746Z,1.60
2023-06-11T00:10:29.286Z,1.10
2023-06-11T00:12:56.836Z,1.30
2023-06-11T00:15:27.049Z,1.30
2023-06-11T00:17:54.707Z,1.30
2023-06-11T00:20:23.694Z,1.30
2023-06-11T00:22:52.708Z,1.40
2023-06-11T00:25:20.274Z,1.40
2023-06-11T00:27:47.873Z,1.60
2023-06-11T00:30:17.702Z,1.50
2023-06-11T00:32:46.958Z,1.40
2023-06-11T00:35:14.904Z,1.50
2023-06-11T00:37:44.132Z,1.40
2023-06-11T00:40:12.087Z,1.40
2023-06-11T00:42:41.861Z,1.20
2023-06-11T00:45:10.162Z,1.80
2023-06-11T00:47:40.207Z,1.20
2023-06-11T00:50:09.752Z,1.40
2023-06-11T00:52:37.402Z,1.30
2023-06-11T00:55:05.325Z,1.00
2023-06-11T00:57:32.862Z,1.40
2023-06-11T01:00:01.680Z,1.30
2023-06-11T01:02:44.413Z,1.20
2023-06-11T01:05:18.882Z,1.50
2023-06-11T01:07:51.486Z,1.40
2023-06-11T01:10:19.685Z,1.50
2023-06-11T01:12:48.814Z,1.50
2023-06-11T01:15:16.403Z,1.40
2023-06-11T01:17:57.169Z,1.20
2023-06-11T01:20:43.135Z,1.50
2023-06-11T01:23:32.755Z,1.40
2023-06-11T01:26:22.310Z,1.30
2023-06-11T01:28:55.721Z,1.40
2023-06-11T01:31:27.034Z,1.50
2023-06-11T01:33:54.676Z,1.30
2023-06-11T01:36:25.634Z,1.60
2023-06-11T01:38:55.698Z,1.50
2023-06-11T01:41:23.227Z,1.80
2023-06-11T01:43:50.686Z,1.40
2023-06-11T01:46:18.211Z,1.40
2023-06-11T01:48:45.990Z,1.30
2023-06-11T01:51:16.633Z,1.60
2023-06-11T01:53:44.751Z,1.30
2023-06-11T01:56:12.252Z,1.60
2023-06-11T01:58:41.464Z,1.50
2023-06-11T02:01:09.322Z,1.40
2023-06-11T02:03:36.903Z,1.70
2023-06-11T02:06:04.726Z,1.70
2023-06-11T02:08:32.224Z,1.40
2023-06-11T02:10:59.757Z,1.40
2023-06-11T02:13:31.838Z,1.70
2023-06-11T02:16:00.022Z,1.40
2023-06-11T02:18:27.711Z,1.30
2023-06-11T02:20:55.314Z,1.60
2023-06-11T02:23:22.844Z,1.80
2023-06-11T02:25:50.548Z,1.50
2023-06-11T02:28:18.496Z,1.50
2023-06-11T02:30:46.605Z,1.60
2023-06-11T02:33:14.316Z,1.50
2023-06-11T02:35:41.959Z,1.40
2023-06-11T02:38:09.472Z,1.60
2023-06-11T02:40:37.052Z,1.50
2023-06-11T02:43:04.612Z,1.70
2023-06-11T02:45:32.230Z,1.30
2023-06-11T02:47:59.794Z,1.50
2023-06-11T02:50:27.375Z,1.40
2023-06-11T02:52:54.910Z,1.30
2023-06-11T02:55:22.527Z,1.60
2023-06-11T02:57:50.334Z,1.50
2023-06-11T03:00:17.907Z,1.40
2023-06-11T03:02:45.726Z,1.50
2023-06-11T03:05:13.592Z,1.50
2023-06-11T03:07:41.767Z,1.50
2023-06-11T03:10:10.173Z,1.70
2023-06-11T03:12:37.717Z,1.70
2023-06-11T03:15:06.878Z,1.50
2023-06-11T03:17:34.504Z,1.80
2023-06-11T03:20:02.592Z,1.60
2023-06-11T03:22:30.223Z,1.70
2023-06-11T03:24:57.771Z,1.80
2023-06-11T03:27:25.363Z,2.10
2023-06-11T03:29:52.900Z,1.90
2023-06-11T03:32:20.529Z,1.80
2023-06-11T03:34:48.207Z,2.30
2023-06-11T03:37:15.766Z,2.20
2023-06-11T03:39:44.272Z,2.30
2023-06-11T03:42:11.907Z,2.80
2023-06-11T03:44:39.515Z,2.50
2023-06-11T03:47:07.392Z,2.70
2023-06-11T03:49:35.009Z,2.70
2023-06-11T03:52:02.834Z,2.50
2023-06-11T03:54:31.732Z,2.90
2023-06-11T03:56:59.345Z,3.00
2023-06-11T03:59:26.917Z,3.10
2023-06-11T04:01:54.494Z,3.10
2023-06-11T04:04:22.047Z,3.20
2023-06-11T04:06:50.056Z,3.50
2023-06-11T04:09:17.584Z,3.50
2023-06-11T04:11:45.485Z,3.30
2023-06-11T04:14:13.021Z,3.70
2023-06-11T04:16:40.773Z,4.00
2023-06-11T04:19:08.649Z,3.60
2023-06-11T04:21:37.233Z,3.80
2023-06-11T04:24:08.354Z,3.70
2023-06-11T04:26:38.195Z,3.40
2023-06-11T04:29:05.821Z,3.80
2023-06-11T04:31:33.598Z,3.90
2023-06-11T04:34:04.406Z,3.30
2023-06-11T04:36:32.505Z,3.40
2023-06-11T04:39:04.838Z,3.30
2023-06-11T04:41:33.399Z,4.00
2023-06-11T04:44:01.971Z,3.30
2023-06-11T04:46:29.606Z,3.40
2023-06-11T04:49:05.440Z,3.60
2023-06-11T04:51:34.515Z,3.40
2023-06-11T04:54:08.582Z,3.70
2023-06-11T04:56:36.646Z,3.50
2023-06-11T04:59:06.388Z,3.60
2023-06-11T05:01:34.080Z,3.20
2023-06-11T05:04:01.643Z,3.30
2023-06-11T05:06:30.875Z,3.50
2023-06-11T05:08:58.492Z,3.20
2023-06-11T05:11:27.231Z,3.00
2023-06-11T05:13:54.893Z,3.50
2023-06-11T05:16:27.321Z,3.10
2023-06-11T05:18:55.383Z,3.50
2023-06-11T05:21:22.910Z,3.00
2023-06-11T05:23:51.403Z,3.10
2023-06-11T05:26:20.279Z,3.00
2023-06-11T05:28:48.102Z,3.00
2023-06-11T05:31:15.691Z,3.30
2023-06-11T05:33:43.210Z,2.90
2023-06-11T05:36:10.778Z,2.50
2023-06-11T05:38:38.522Z,2.80
2023-06-11T05:41:06.106Z,2.70
2023-06-11T05:43:33.734Z,3.10
2023-06-11T05:46:01.291Z,2.60
2023-06-11T05:48:30.122Z,2.70
2023-06-11T05:50:57.779Z,2.70
2023-06-11T05:53:25.468Z,2.50
2023-06-11T05:55:55.410Z,2.50
2023-06-11T05:58:23.618Z,2.20
2023-06-11T06:00:52.740Z,2.40
2023-06-11T06:03:20.923Z,2.50
2023-06-11T06:05:48.630Z,2.30
2023-06-11T06:08:16.269Z,2.20
2023-06-11T06:10:43.779Z,2.20
2023-06-11T06:13:11.315Z,2.60
2023-06-11T06:15:38.840Z,2.20
2023-06-11T06:18:06.713Z,2.20
2023-06-11T06:20:34.367Z,2.20
2023-06-11T06:23:01.944Z,2.40
2023-06-11T06:25:29.496Z,2.60
2023-06-11T06:27:57.038Z,2.20
2023-06-11T06:30:24.570Z,2.50
2023-06-11T06:32:52.111Z,2.10
2023-06-11T06:35:19.670Z,2.90
2023-06-11T06:37:47.296Z,2.80
2023-06-11T06:40:14.881Z,2.80
2023-06-11T06:42:42.453Z,2.40
2023-06-11T06:45:10.721Z,1.90
2023-06-11T06:47:38.618Z,2.60
2023-06-11T06:50:07.395Z,2.40
2023-06-11T06:52:35.559Z,2.20
2023-06-11T06:55:03.298Z,2.10
2023-06-11T06:57:31.475Z,2.50
2023-06-11T06:59:59.754Z,2.60
2023-06-11T07:02:27.444Z,2.10
2023-06-11T07:04:55.272Z,1.90
2023-06-11T07:07:26.439Z,2.10
2023-06-11T07:09:54.152Z,2.00
2023-06-11T07:12:22.250Z,2.10
2023-06-11T07:14:49.777Z,3.00
2023-06-11T07:17:19.553Z,2.10
2023-06-11T07:19:47.347Z,1.90
2023-06-11T07:22:15.152Z,2.00
2023-06-11T07:24:47.647Z,2.00
2023-06-11T07:27:15.908Z,2.50
2023-06-11T07:29:43.658Z,1.90
2023-06-11T07:32:11.313Z,1.80
2023-06-11T07:34:41.090Z,2.60
2023-06-11T07:37:09.569Z,2.10
2023-06-11T07:39:37.250Z,2.10
2023-06-11T07:42:06.448Z,2.20
2023-06-11T07:44:34.235Z,3.80
2023-06-11T07:47:02.801Z,2.00
2023-06-11T07:49:30.762Z,2.00
2023-06-11T07:51:58.308Z,2.20
2023-06-11T07:54:25.822Z,2.00
2023-06-11T07:56:53.395Z,2.00
2023-06-11T07:59:20.934Z,2.10
2023-06-11T08:01:48.609Z,1.90
2023-06-11T08:04:16.264Z,2.00
2023-06-11T08:06:45.837Z,2.00
2023-06-11T08:09:13.395Z,1.80
2023-06-11T08:11:42.524Z,1.80
2023-06-11T08:14:10.288Z,1.90
2023-06-11T08:16:37.937Z,2.10
2023-06-11T08:19:05.560Z,2.00
2023-06-11T08:21:33.052Z,1.80
2023-06-11T08:24:01.003Z,1.90
2023-06-11T08:26:30.220Z,1.90
2023-06-11T08:28:57.962Z,2.20
2023-06-11T08:31:28.626Z,1.90
2023-06-11T08:33:56.270Z,2.10
2023-06-11T08:36:23.917Z,2.00
2023-06-11T08:38:51.551Z,2.10
2023-06-11T08:41:20.375Z,2.20
2023-06-11T08:43:48.053Z,1.80
2023-06-11T08:46:16.228Z,1.70
2023-06-11T08:48:45.661Z,1.60
2023-06-11T08:51:14.076Z,1.70
2023-06-11T08:53:42.537Z,1.70
2023-06-11T08:56:10.339Z,1.90
2023-06-11T08:58:39.083Z,1.50
2023-06-11T09:01:12.372Z,1.90
2023-06-11T09:03:40.004Z,1.60
2023-06-11T09:06:08.399Z,2.00
2023-06-11T09:08:35.982Z,1.80
2023-06-11T09:11:07.090Z,1.60
2023-06-11T09:13:42.142Z,2.30
2023-06-11T09:16:09.840Z,2.00
2023-06-11T09:18:37.457Z,1.80
2023-06-11T09:21:05.132Z,1.60
2023-06-11T09:23:35.610Z,1.80
2023-06-11T09:26:03.891Z,1.70
2023-06-11T09:28:36.051Z,1.90
2023-06-11T09:31:05.397Z,1.80
2023-06-11T09:33:33.838Z,1.50
2023-06-11T09:36:01.926Z,1.40
2023-06-11T09:38:34.983Z,1.90
2023-06-11T09:41:07.411Z,2.00
2023-06-11T09:43:36.542Z,1.80
2023-06-11T09:46:04.179Z,1.40
2023-06-11T09:48:32.456Z,1.50
2023-06-11T09:51:03.551Z,1.60
2023-06-11T09:53:35.499Z,1.30
2023-06-11T09:56:11.601Z,1.70
2023-06-11T09:58:40.870Z,1.70
2023-06-11T10:01:08.961Z,1.40
2023-06-11T10:03:36.841Z,1.50
2023-06-11T10:06:11.841Z,1.50
2023-06-11T10:08:42.028Z,2.50
2023-06-11T10:11:10.285Z,2.60
2023-06-11T10:13:38.909Z,1.70
2023-06-11T10:16:12.778Z,2.00
2023-06-11T10:18:40.488Z,1.90
2023-06-11T10:21:08.279Z,1.80
2023-06-11T10:23:43.425Z,1.50
2023-06-11T10:26:11.689Z,1.50
2023-06-11T10:28:56.108Z,1.90
2023-06-11T10:31:27.775Z,2.20
2023-06-11T10:34:03.729Z,2.30
2023-06-11T10:36:36.949Z,1.70
2023-06-11T10:39:10.509Z,1.40
2023-06-11T10:41:43.675Z,1.50
2023-06-11T10:44:11.824Z,1.80
2023-06-11T10:46:49.012Z,1.80
2023-06-11T10:49:16.801Z,1.40
2023-06-11T10:51:44.652Z,2.00
2023-06-11T10:54:12.267Z,1.70
2023-06-11T10:56:39.814Z,1.70
2023-06-11T10:59:11.077Z,1.40
2023-06-11T11:01:41.934Z,1.90
2023-06-11T11:04:09.650Z,1.70
2023-06-11T11:06:39.665Z,1.90
2023-06-11T11:09:07.299Z,1.90
2023-06-11T11:11:35.212Z,1.70
2023-06-11T11:14:04.709Z,1.80
2023-06-11T11:16:32.408Z,1.70
2023-06-11T11:19:00.583Z,2.00
2023-06-11T11:21:30.168Z,1.90
2023-06-11T11:23:57.894Z,1.60
2023-06-11T11:26:26.839Z,1.60
2023-06-11T11:28:54.554Z,3.00
2023-06-11T11:31:22.602Z,2.10
2023-06-11T11:33:51.416Z,3.00
2023-06-11T11:36:19.377Z,2.00
2023-06-11T11:38:48.312Z,1.70
2023-06-11T11:41:15.949Z,1.70
2023-06-11T11:43:45.786Z,2.50
2023-06-11T11:46:29.464Z,2.30
2023-06-11T11:48:57.405Z,2.00
2023-06-11T11:51:26.396Z,2.30
2023-06-11T11:53:54.013Z,2.10
2023-06-11T11:56:21.528Z,2.40
2023-06-11T11:58:52.589Z,2.30
2023-06-11T12:01:27.681Z,2.20
2023-06-11T12:04:02.205Z,2.30
2023-06-11T12:06:34.129Z,2.50
2023-06-11T12:09:01.742Z,2.00
2023-06-11T12:11:32.042Z,2.50
2023-06-11T12:13:59.631Z,2.40
2023-06-11T12:16:27.322Z,2.60
2023-06-11T12:19:06.842Z,2.90
2023-06-11T12:21:42.430Z,2.60
2023-06-11T12:24:13.109Z,2.30
2023-06-11T12:26:41.724Z,4.40
2023-06-11T12:29:11.279Z,2.50
2023-06-11T12:31:39.988Z,3.40
2023-06-11T12:34:07.955Z,3.70
2023-06-11T12:36:35.931Z,3.50
2023-06-11T12:39:05.548Z,3.30
2023-06-11T12:41:33.169Z,3.90
2023-06-11T12:44:00.753Z,3.50
2023-06-11T12:46:28.327Z,3.90
2023-06-11T12:48:55.944Z,4.10
2023-06-11T12:51:23.751Z,3.90
2023-06-11T12:53:53.497Z,3.60
2023-06-11T12:56:24.110Z,3.40
2023-06-11T12:58:51.750Z,3.70
2023-06-11T13:01:19.832Z,4.30
2023-06-11T13:03:47.749Z,3.90
2023-06-11T13:06:15.326Z,4.80
2023-06-11T13:08:42.948Z,3.80
2023-06-11T13:11:10.536Z,4.60
2023-06-11T13:13:38.183Z,4.30
2023-06-11T13:16:07.833Z,4.60
2023-06-11T13:18:35.561Z,4.00
2023-06-11T13:21:03.597Z,4.70
2023-06-11T13:23:32.583Z,4.40
2023-06-11T13:26:01.757Z,5.00
2023-06-11T13:28:29.965Z,4.30
2023-06-11T13:30:59.565Z,5.90
2023-06-11T13:33:27.378Z,5.30
2023-06-11T13:35:55.120Z,5.40
2023-06-11T13:38:23.443Z,6.40
2023-06-11T13:40:52.697Z,5.90
2023-06-11T13:43:20.486Z,5.90
2023-06-11T13:45:49.403Z,5.90
2023-06-11T13:48:21.704Z,6.30
2023-06-11T13:50:51.387Z,6.90
2023-06-11T13:53:20.486Z,6.60
2023-06-11T13:55:49.089Z,6.50
2023-06-11T13:58:17.177Z,6.30
2023-06-11T14:00:44.976Z,6.50
2023-06-11T14:03:12.900Z,7.80
2023-06-11T14:05:40.654Z,6.60
2023-06-11T14:08:09.558Z,8.00
2023-06-11T14:10:37.113Z,8.30
2023-06-11T14:13:04.599Z,7.90
2023-06-11T14:15:32.199Z,7.70
2023-06-11T14:17:59.786Z,8.90
2023-06-11T14:20:27.471Z,7.50
2023-06-11T14:22:55.217Z,8.10
2023-06-11T14:25:22.829Z,7.60
2023-06-11T14:27:50.441Z,8.50
2023-06-11T14:30:18.874Z,8.20
2023-06-11T14:32:46.574Z,8.70
2023-06-11T14:35:15.928Z,7.90
2023-06-11T14:37:43.620Z,7.50
2023-06-11T14:40:12.025Z,8.60
2023-06-11T14:42:40.214Z,8.70
2023-06-11T14:45:08.493Z,9.50
2023-06-11T14:47:38.320Z,8.90
2023-06-11T14:50:06.360Z,10.00
2023-06-11T14:52:34.069Z,7.70
2023-06-11T14:55:01.801Z,9.90
2023-06-11T14:57:29.421Z,9.00
2023-06-11T14:59:57.083Z,9.80
2023-06-11T15:02:24.718Z,8.70
2023-06-11T15:04:52.771Z,9.60
2023-06-11T15:07:33.712Z,8.60
2023-06-11T15:10:05.395Z,9.40
2023-06-11T15:12:33.474Z,9.20
2023-06-11T15:15:01.785Z,9.80
2023-06-11T15:17:32.878Z,9.70
2023-06-11T15:20:01.389Z,10.40
2023-06-11T15:22:29.111Z,9.00
2023-06-11T15:24:56.778Z,9.20
2023-06-11T15:27:24.303Z,9.90
2023-06-11T15:29:51.821Z,10.40
2023-06-11T15:32:20.890Z,8.90
2023-06-11T15:34:48.744Z,9.00
2023-06-11T15:37:17.681Z,9.00
2023-06-11T15:39:51.353Z,8.40
2023-06-11T15:42:19.846Z,8.70
2023-06-11T15:44:49.947Z,8.60
2023-06-11T15:47:18.494Z,8.10
2023-06-11T15:49:46.405Z,8.30
2023-06-11T15:52:14.211Z,9.50
2023-06-11T15:54:41.935Z,10.30
2023-06-11T15:57:09.999Z,8.50
2023-06-11T15:59:37.609Z,10.30
2023-06-11T16:02:05.640Z,8.10
2023-06-11T16:04:33.476Z,8.90
2023-06-11T16:07:01.525Z,9.40
2023-06-11T16:09:29.451Z,9.10
2023-06-11T16:11:57.022Z,7.00
2023-06-11T16:14:24.633Z,8.20
2023-06-11T16:16:52.120Z,7.80
2023-06-11T16:19:19.723Z,8.40
2023-06-11T16:21:48.052Z,6.80
2023-06-11T16:24:15.617Z,7.70
2023-06-11T16:26:43.414Z,6.70
2023-06-11T16:29:10.920Z,7.40
2023-06-11T16:31:41.799Z,7.40
2023-06-11T16:34:11.104Z,7.00
2023-06-11T16:36:39.729Z,7.30
2023-06-11T16:39:25.593Z,6.40
2023-06-11T16:41:54.767Z,7.10
2023-06-11T16:44:22.540Z,6.30
2023-06-11T16:46:51.362Z,5.80
2023-06-11T16:49:19.227Z,5.60
2023-06-11T16:51:46.873Z,5.30
2023-06-11T16:54:17.461Z,5.60
2023-06-11T16:56:46.518Z,5.40
2023-06-11T16:59:14.219Z,4.70
2023-06-11T17:01:42.842Z,4.50
2023-06-11T17:04:10.431Z,4.60
2023-06-11T17:06:37.995Z,4.20
2023-06-11T17:09:05.595Z,4.00
2023-06-11T17:11:33.151Z,3.30
2023-06-11T17:14:00.893Z,3.60
2023-06-11T17:16:28.614Z,3.00
2023-06-11T17:18:56.239Z,2.90
2023-06-11T17:21:23.745Z,2.90
2023-06-11T17:23:51.266Z,3.00
2023-06-11T17:26:18.974Z,2.50
2023-06-11T17:28:46.770Z,2.30
2023-06-11T17:31:14.329Z,2.70
2023-06-11T17:33:41.959Z,2.30
2023-06-11T17:36:09.683Z,2.00
2023-06-11T17:38:37.191Z,2.20
2023-06-11T17:41:04.680Z,2.00
2023-06-11T17:43:33.117Z,2.50
2023-06-11T17:46:04.153Z,2.60
2023-06-11T17:48:32.383Z,2.60
2023-06-11T17:51:00.003Z,2.10
2023-06-11T17:53:27.711Z,2.50
2023-06-11T17:55:55.316Z,2.30
2023-06-11T17:58:22.931Z,2.80
2023-06-11T18:00:51.135Z,2.20
2023-06-11T18:03:18.776Z,2.10
2023-06-11T18:05:46.505Z,1.90
2023-06-11T18:08:14.229Z,2.10
2023-06-11T18:10:42.659Z,1.90
2023-06-11T18:13:10.322Z,2.00
2023-06-11T18:15:41.136Z,1.60
2023-06-11T18:18:09.850Z,2.00
2023-06-11T18:20:37.736Z,2.20
2023-06-11T18:23:05.863Z,1.80
2023-06-11T18:25:33.517Z,1.90
2023-06-11T18:28:01.388Z,1.90
2023-06-11T18:30:29.406Z,1.90
2023-06-11T18:32:57.180Z,1.80
2023-06-11T18:35:24.831Z,1.90
2023-06-11T18:37:52.791Z,1.80
2023-06-11T18:40:20.560Z,2.20
2023-06-11T18:42:49.223Z,2.20
2023-06-11T18:45:17.151Z,1.80
2023-06-11T18:47:45.564Z,1.60
2023-06-11T18:50:14.191Z,2.00
2023-06-11T18:52:42.101Z,2.10
2023-06-11T18:55:10.781Z,2.00
2023-06-11T18:57:38.673Z,2.00
2023-06-11T19:00:08.107Z,1.90
2023-06-11T19:02:35.800Z,1.90
2023-06-11T19:05:03.786Z,1.90
2023-06-11T19:07:32.903Z,3.60
2023-06-11T19:10:00.919Z,2.20
2023-06-11T19:12:28.837Z,6.70
2023-06-11T19:14:58.334Z,5.70
2023-06-11T19:17:25.947Z,2.60
2023-06-11T19:19:54.943Z,3.40
2023-06-11T19:22:22.617Z,4.20
2023-06-11T19:24:50.517Z,3.80
2023-06-11T19:27:19.268Z,2.20
2023-06-11T19:29:46.937Z,2.00
2023-06-11T19:32:14.571Z,1.90
2023-06-11T19:34:42.932Z,2.10
2023-06-11T19:37:10.568Z,2.10
2023-06-11T19:39:38.205Z,2.30
2023-06-11T19:42:06.258Z,2.40
2023-06-11T19:44:34.020Z,3.60
2023-06-11T19:47:02.549Z,3.00
2023-06-11T19:49:30.350Z,2.50
2023-06-11T19:51:58.719Z,2.20
2023-06-11T19:54:45.935Z,2.00
2023-06-11T19:57:18.597Z,2.10
2023-06-11T19:59:48.771Z,2.40
2023-06-11T20:02:16.820Z,4.30
2023-06-11T20:04:44.722Z,2.80
2023-06-11T20:07:16.636Z,3.30
2023-06-11T20:09:46.314Z,3.40
2023-06-11T20:12:14.212Z,2.90
2023-06-11T20:14:42.606Z,2.00
2023-06-11T20:17:10.414Z,2.70
2023-06-11T20:19:38.153Z,2.10
2023-06-11T20:22:07.123Z,2.20
2023-06-11T20:24:34.877Z,2.50
2023-06-11T20:27:02.751Z,2.60
2023-06-11T20:29:31.476Z,2.10
2023-06-11T20:32:00.384Z,2.90
2023-06-11T20:34:28.446Z,2.60
2023-06-11T20:36:56.297Z,1.80
2023-06-11T20:39:23.791Z,3.00
2023-06-11T20:41:51.323Z,2.20
2023-06-11T20:44:20.250Z,2.00
2023-06-11T20:46:47.858Z,1.70
2023-06-11T20:49:15.441Z,2.00
2023-06-11T20:51:42.972Z,1.90
2023-06-11T20:54:13.415Z,2.40
2023-06-11T20:56:41.136Z,1.90
2023-06-11T20:59:10.819Z,2.60
2023-06-11T21:01:39.223Z,2.30
2023-06-11T21:04:07.271Z,2.00
2023-06-11T21:06:40.364Z,1.90
2023-06-11T21:09:08.580Z,1.80
2023-06-11T21:11:36.141Z,2.90
2023-06-11T21:14:13.530Z,2.30
2023-06-11T21:16:42.874Z,2.50
2023-06-11T21:19:10.681Z,2.60
2023-06-11T21:21:38.295Z,2.70
2023-06-11T21:24:06.321Z,2.30
2023-06-11T21:26:34.207Z,2.30
2023-06-11T21:29:01.884Z,2.60
2023-06-11T21:31:29.597Z,3.40
2023-06-11T21:33:59.107Z,2.50
2023-06-11T21:36:27.633Z,2.10
2023-06-11T21:38:56.376Z,1.80
2023-06-11T21:41:23.921Z,2.10
2023-06-11T21:43:51.554Z,2.00
2023-06-11T21:46:19.510Z,1.80
2023-06-11T21:48:47.331Z,2.30
2023-06-11T21:51:15.083Z,2.70
2023-06-11T21:53:42.566Z,2.00
2023-06-11T21:56:10.289Z,2.30
2023-06-11T21:58:37.849Z,1.80
2023-06-11T22:01:05.785Z,1.90
2023-06-11T22:03:33.386Z,2.10
2023-06-11T22:06:04.112Z,1.90
2023-06-11T22:08:31.792Z,2.10
2023-06-11T22:10:59.323Z,2.10
2023-06-11T22:13:31.117Z,2.10
2023-06-11T22:15:58.629Z,2.30
2023-06-11T22:18:29.168Z,2.20
2023-06-11T22:20:58.021Z,2.30
2023-06-11T22:23:37.212Z,2.20
2023-06-11T22:26:13.638Z,2.10
2023-06-11T22:28:41.230Z,2.10
2023-06-11T22:31:08.882Z,2.10
2023-06-11T22:33:36.613Z,2.00
2023-06-11T22:36:04.556Z,2.20
2023-06-11T22:38:32.051Z,2.30
2023-06-11T22:40:59.741Z,2.00
2023-06-11T22:43:27.613Z,2.20
2023-06-11T22:45:55.183Z,2.30
2023-06-11T22:48:22.735Z,2.40
2023-06-11T22:50:50.436Z,1.80
2023-06-11T22:53:18.014Z,2.00
2023-06-11T22:55:45.617Z,1.90
2023-06-11T22:58:13.218Z,2.10
2023-06-11T23:00:41.115Z,2.00
2023-06-11T23:03:10.772Z,2.20
2023-06-11T23:05:38.572Z,2.00
2023-06-11T23:08:06.639Z,1.90
2023-06-11T23:10:34.214Z,2.00
2023-06-11T23:13:01.824Z,1.80
2023-06-11T23:15:29.477Z,1.80
2023-06-11T23:17:57.215Z,1.80
2023-06-11T23:20:27.283Z,2.00
2023-06-11T23:22:59.552Z,2.10
2023-06-11T23:25:27.585Z,2.00
2023-06-11T23:27:55.538Z,2.00
2023-06-11T23:30:23.309Z,1.90
2023-06-11T23:32:52.117Z,2.10
2023-06-11T23:35:19.949Z,1.90
2023-06-11T23:37:52.922Z,2.00
2023-06-11T23:40:21.031Z,2.00
2023-06-11T23:42:48.673Z,2.00
2023-06-11T23:45:16.494Z,1.90
2023-06-11T23:47:44.156Z,2.10
2023-06-11T23:50:12.248Z,1.90
2023-06-11T23:52:40.172Z,1.90
2023-06-11T23:55:08.278Z,1.80
2023-06-11T23:57:38.503Z,1.80
